sensor_id;sensor_type;location;lat;lon;timestamp;temperature;humidity
25112;DHT22;13092;51.996;4.458;2022-07-05T00:01:42;19.30;99.90
25112;DHT22;13092;51.996;4.458;2022-07-05T00:04:10;19.30;99.90
25112;DHT22;13092;51.996;4.458;2022-07-05T00:06:38;19.30;99.90
25112;DHT22;13092;51.996;4.458;2022-07-05T00:09:28;19.30;99.90
25112;DHT22;13092;51.996;4.458;2022-07-05T00:11:56;19.30;99.90
25112;DHT22;13092;51.996;4.458;2022-07-05T00:14:26;19.30;99.90
25112;DHT22;13092;51.996;4.458;2022-07-05T00:16:54;19.30;99.90
25112;DHT22;13092;51.996;4.458;2022-07-05T00:19:22;19.30;99.90
25112;DHT22;13092;51.996;4.458;2022-07-05T00:21:50;19.30;99.90
25112;DHT22;13092;51.996;4.458;2022-07-05T00:24:18;19.30;99.90
25112;DHT22;13092;51.996;4.458;2022-07-05T00:26:48;19.30;99.90
25112;DHT22;13092;51.996;4.458;2022-07-05T00:29:16;19.20;99.90
25112;DHT22;13092;51.996;4.458;2022-07-05T00:31:44;19.20;99.90
25112;DHT22;13092;51.996;4.458;2022-07-05T00:34:12;19.20;99.90
25112;DHT22;13092;51.996;4.458;2022-07-05T00:36:40;19.20;99.90
25112;DHT22;13092;51.996;4.458;2022-07-05T00:39:09;19.20;99.90
25112;DHT22;13092;51.996;4.458;2022-07-05T00:41:37;19.20;99.90
25112;DHT22;13092;51.996;4.458;2022-07-05T00:44:09;19.00;99.90
25112;DHT22;13092;51.996;4.458;2022-07-05T00:46:37;19.10;99.90
25112;DHT22;13092;51.996;4.458;2022-07-05T00:49:06;19.00;99.90
25112;DHT22;13092;51.996;4.458;2022-07-05T00:51:36;19.00;99.90
25112;DHT22;13092;51.996;4.458;2022-07-05T00:54:25;18.90;99.90
25112;DHT22;13092;51.996;4.458;2022-07-05T00:56:53;18.80;99.90
25112;DHT22;13092;51.996;4.458;2022-07-05T00:59:26;18.70;99.90
25112;DHT22;13092;51.996;4.458;2022-07-05T01:01:54;18.60;99.90
25112;DHT22;13092;51.996;4.458;2022-07-05T01:04:22;18.50;99.90
25112;DHT22;13092;51.996;4.458;2022-07-05T01:06:51;18.40;99.90
25112;DHT22;13092;51.996;4.458;2022-07-05T01:09:20;18.30;99.90
25112;DHT22;13092;51.996;4.458;2022-07-05T01:11:51;18.20;99.90
25112;DHT22;13092;51.996;4.458;2022-07-05T01:14:20;18.20;99.90
25112;DHT22;13092;51.996;4.458;2022-07-05T01:16:50;18.10;99.90
25112;DHT22;13092;51.996;4.458;2022-07-05T01:19:20;18.10;99.90
25112;DHT22;13092;51.996;4.458;2022-07-05T01:21:49;18.20;99.90
25112;DHT22;13092;51.996;4.458;2022-07-05T01:24:19;18.20;99.90
25112;DHT22;13092;51.996;4.458;2022-07-05T01:26:49;18.20;99.90
25112;DHT22;13092;51.996;4.458;2022-07-05T01:29:18;18.20;99.90
25112;DHT22;13092;51.996;4.458;2022-07-05T01:31:46;18.20;99.90
25112;DHT22;13092;51.996;4.458;2022-07-05T01:34:14;18.20;99.90
25112;DHT22;13092;51.996;4.458;2022-07-05T01:36:42;18.20;99.90
25112;DHT22;13092;51.996;4.458;2022-07-05T01:39:10;18.10;99.90
25112;DHT22;13092;51.996;4.458;2022-07-05T01:41:40;18.20;99.90
25112;DHT22;13092;51.996;4.458;2022-07-05T01:44:08;18.20;99.90
25112;DHT22;13092;51.996;4.458;2022-07-05T01:46:36;18.10;99.90
25112;DHT22;13092;51.996;4.458;2022-07-05T01:49:09;18.10;99.90
25112;DHT22;13092;51.996;4.458;2022-07-05T01:51:42;18.00;99.90
25112;DHT22;13092;51.996;4.458;2022-07-05T01:54:12;18.10;99.90
25112;DHT22;13092;51.996;4.458;2022-07-05T01:56:42;18.10;99.90
25112;DHT22;13092;51.996;4.458;2022-07-05T01:59:11;18.10;99.90
25112;DHT22;13092;51.996;4.458;2022-07-05T02:01:40;17.80;99.90
25112;DHT22;13092;51.996;4.458;2022-07-05T02:04:10;17.80;99.90
25112;DHT22;13092;51.996;4.458;2022-07-05T02:06:38;17.70;99.90
25112;DHT22;13092;51.996;4.458;2022-07-05T02:09:07;17.80;99.90
25112;DHT22;13092;51.996;4.458;2022-07-05T02:11:35;17.70;99.90
25112;DHT22;13092;51.996;4.458;2022-07-05T02:14:04;17.80;99.90
25112;DHT22;13092;51.996;4.458;2022-07-05T02:16:32;17.80;99.90
25112;DHT22;13092;51.996;4.458;2022-07-05T02:19:01;17.70;99.90
25112;DHT22;13092;51.996;4.458;2022-07-05T02:21:29;17.80;99.90
25112;DHT22;13092;51.996;4.458;2022-07-05T02:23:57;17.70;99.90
25112;DHT22;13092;51.996;4.458;2022-07-05T02:26:25;17.80;99.90
25112;DHT22;13092;51.996;4.458;2022-07-05T02:28:53;17.60;99.90
25112;DHT22;13092;51.996;4.458;2022-07-05T02:31:22;17.50;99.90
25112;DHT22;13092;51.996;4.458;2022-07-05T02:33:50;17.40;99.90
25112;DHT22;13092;51.996;4.458;2022-07-05T02:36:19;17.40;99.90
25112;DHT22;13092;51.996;4.458;2022-07-05T02:38:47;17.40;99.90
25112;DHT22;13092;51.996;4.458;2022-07-05T02:41:15;17.40;99.90
25112;DHT22;13092;51.996;4.458;2022-07-05T02:43:44;17.40;99.90
25112;DHT22;13092;51.996;4.458;2022-07-05T02:46:12;17.20;99.90
25112;DHT22;13092;51.996;4.458;2022-07-05T02:48:44;17.40;99.90
25112;DHT22;13092;51.996;4.458;2022-07-05T02:51:12;17.30;99.90
25112;DHT22;13092;51.996;4.458;2022-07-05T02:53:43;17.30;99.90
25112;DHT22;13092;51.996;4.458;2022-07-05T02:56:11;17.50;99.90
25112;DHT22;13092;51.996;4.458;2022-07-05T02:58:38;17.40;99.90
25112;DHT22;13092;51.996;4.458;2022-07-05T03:01:06;17.40;99.90
25112;DHT22;13092;51.996;4.458;2022-07-05T03:03:35;17.50;99.90
25112;DHT22;13092;51.996;4.458;2022-07-05T03:06:04;17.50;99.90
25112;DHT22;13092;51.996;4.458;2022-07-05T03:08:32;17.60;99.90
25112;DHT22;13092;51.996;4.458;2022-07-05T03:11:00;17.60;99.90
25112;DHT22;13092;51.996;4.458;2022-07-05T03:13:28;17.50;99.90
25112;DHT22;13092;51.996;4.458;2022-07-05T03:15:56;17.60;99.90
25112;DHT22;13092;51.996;4.458;2022-07-05T03:18:24;17.60;99.90
25112;DHT22;13092;51.996;4.458;2022-07-05T03:20:52;17.60;99.90
25112;DHT22;13092;51.996;4.458;2022-07-05T03:23:22;17.60;99.90
25112;DHT22;13092;51.996;4.458;2022-07-05T03:25:50;17.80;99.90
25112;DHT22;13092;51.996;4.458;2022-07-05T03:28:18;17.70;99.90
25112;DHT22;13092;51.996;4.458;2022-07-05T03:30:46;17.70;99.90
25112;DHT22;13092;51.996;4.458;2022-07-05T03:33:14;17.70;99.90
25112;DHT22;13092;51.996;4.458;2022-07-05T03:35:42;17.70;99.90
25112;DHT22;13092;51.996;4.458;2022-07-05T03:38:10;17.70;99.90
25112;DHT22;13092;51.996;4.458;2022-07-05T03:40:39;17.70;99.90
25112;DHT22;13092;51.996;4.458;2022-07-05T03:43:07;17.80;99.90
25112;DHT22;13092;51.996;4.458;2022-07-05T03:45:35;17.60;99.90
25112;DHT22;13092;51.996;4.458;2022-07-05T03:48:04;17.50;99.90
25112;DHT22;13092;51.996;4.458;2022-07-05T03:50:52;17.40;99.90
25112;DHT22;13092;51.996;4.458;2022-07-05T03:53:20;17.40;99.90
25112;DHT22;13092;51.996;4.458;2022-07-05T03:55:50;17.50;99.90
25112;DHT22;13092;51.996;4.458;2022-07-05T03:58:18;17.50;99.90
25112;DHT22;13092;51.996;4.458;2022-07-05T04:00:46;17.50;99.90
25112;DHT22;13092;51.996;4.458;2022-07-05T04:03:14;17.60;99.90
25112;DHT22;13092;51.996;4.458;2022-07-05T04:05:42;17.60;99.90
25112;DHT22;13092;51.996;4.458;2022-07-05T04:08:10;17.60;99.90
25112;DHT22;13092;51.996;4.458;2022-07-05T04:10:38;17.50;99.90
25112;DHT22;13092;51.996;4.458;2022-07-05T04:13:07;17.40;99.90
25112;DHT22;13092;51.996;4.458;2022-07-05T04:15:35;17.50;99.90
25112;DHT22;13092;51.996;4.458;2022-07-05T04:18:04;17.40;99.90
25112;DHT22;13092;51.996;4.458;2022-07-05T04:20:32;17.40;99.90
25112;DHT22;13092;51.996;4.458;2022-07-05T04:23:00;17.40;99.90
25112;DHT22;13092;51.996;4.458;2022-07-05T04:25:28;17.50;99.90
25112;DHT22;13092;51.996;4.458;2022-07-05T04:27:56;17.50;99.90
25112;DHT22;13092;51.996;4.458;2022-07-05T04:30:26;17.40;99.90
25112;DHT22;13092;51.996;4.458;2022-07-05T04:32:54;17.30;99.90
25112;DHT22;13092;51.996;4.458;2022-07-05T04:35:22;17.30;99.90
25112;DHT22;13092;51.996;4.458;2022-07-05T04:37:50;17.40;99.90
25112;DHT22;13092;51.996;4.458;2022-07-05T04:40:18;17.30;99.90
25112;DHT22;13092;51.996;4.458;2022-07-05T04:42:49;17.30;99.90
25112;DHT22;13092;51.996;4.458;2022-07-05T04:45:16;17.40;99.90
25112;DHT22;13092;51.996;4.458;2022-07-05T04:47:46;17.40;99.90
25112;DHT22;13092;51.996;4.458;2022-07-05T04:50:14;17.60;99.90
25112;DHT22;13092;51.996;4.458;2022-07-05T04:52:42;17.60;99.90
25112;DHT22;13092;51.996;4.458;2022-07-05T04:55:10;17.70;99.90
25112;DHT22;13092;51.996;4.458;2022-07-05T04:57:38;17.80;99.90
25112;DHT22;13092;51.996;4.458;2022-07-05T05:00:08;18.00;99.90
25112;DHT22;13092;51.996;4.458;2022-07-05T05:02:36;18.20;99.90
25112;DHT22;13092;51.996;4.458;2022-07-05T05:05:06;18.40;99.90
25112;DHT22;13092;51.996;4.458;2022-07-05T05:07:34;18.60;99.90
25112;DHT22;13092;51.996;4.458;2022-07-05T05:10:05;18.70;99.90
25112;DHT22;13092;51.996;4.458;2022-07-05T05:12:33;18.80;99.90
25112;DHT22;13092;51.996;4.458;2022-07-05T05:15:01;18.90;99.90
25112;DHT22;13092;51.996;4.458;2022-07-05T05:17:35;19.00;99.90
25112;DHT22;13092;51.996;4.458;2022-07-05T05:20:07;19.00;99.90
25112;DHT22;13092;51.996;4.458;2022-07-05T05:22:37;18.90;99.90
25112;DHT22;13092;51.996;4.458;2022-07-05T05:25:06;18.90;99.90
25112;DHT22;13092;51.996;4.458;2022-07-05T05:27:34;18.80;99.90
25112;DHT22;13092;51.996;4.458;2022-07-05T05:30:02;18.80;99.90
25112;DHT22;13092;51.996;4.458;2022-07-05T05:32:30;18.70;99.90
25112;DHT22;13092;51.996;4.458;2022-07-05T05:34:58;18.80;99.90
25112;DHT22;13092;51.996;4.458;2022-07-05T05:37:28;18.70;99.90
25112;DHT22;13092;51.996;4.458;2022-07-05T05:39:56;18.70;99.90
25112;DHT22;13092;51.996;4.458;2022-07-05T05:42:23;18.70;99.90
25112;DHT22;13092;51.996;4.458;2022-07-05T05:44:51;18.70;99.90
25112;DHT22;13092;51.996;4.458;2022-07-05T05:47:19;18.80;99.90
25112;DHT22;13092;51.996;4.458;2022-07-05T05:49:47;18.80;99.90
25112;DHT22;13092;51.996;4.458;2022-07-05T05:52:15;18.90;99.90
25112;DHT22;13092;51.996;4.458;2022-07-05T05:54:45;18.90;99.90
25112;DHT22;13092;51.996;4.458;2022-07-05T05:57:12;19.00;99.90
25112;DHT22;13092;51.996;4.458;2022-07-05T05:59:40;19.00;99.90
25112;DHT22;13092;51.996;4.458;2022-07-05T06:02:09;18.90;99.90
25112;DHT22;13092;51.996;4.458;2022-07-05T06:04:37;19.00;99.90
25112;DHT22;13092;51.996;4.458;2022-07-05T06:07:05;19.00;99.90
25112;DHT22;13092;51.996;4.458;2022-07-05T06:09:33;19.20;99.90
25112;DHT22;13092;51.996;4.458;2022-07-05T06:12:04;19.10;99.90
25112;DHT22;13092;51.996;4.458;2022-07-05T06:14:32;19.10;99.90
25112;DHT22;13092;51.996;4.458;2022-07-05T06:17:00;19.10;99.90
25112;DHT22;13092;51.996;4.458;2022-07-05T06:19:28;19.20;99.90
25112;DHT22;13092;51.996;4.458;2022-07-05T06:21:56;19.20;99.90
25112;DHT22;13092;51.996;4.458;2022-07-05T06:24:26;19.30;99.90
25112;DHT22;13092;51.996;4.458;2022-07-05T06:26:54;19.30;99.90
25112;DHT22;13092;51.996;4.458;2022-07-05T06:29:26;19.30;99.90
25112;DHT22;13092;51.996;4.458;2022-07-05T06:31:53;19.40;99.90
25112;DHT22;13092;51.996;4.458;2022-07-05T06:34:21;19.40;99.90
25112;DHT22;13092;51.996;4.458;2022-07-05T06:36:49;19.50;99.90
25112;DHT22;13092;51.996;4.458;2022-07-05T06:39:17;19.60;99.90
25112;DHT22;13092;51.996;4.458;2022-07-05T06:41:45;19.70;99.90
25112;DHT22;13092;51.996;4.458;2022-07-05T06:44:13;19.70;99.90
25112;DHT22;13092;51.996;4.458;2022-07-05T06:47:03;19.70;99.90
25112;DHT22;13092;51.996;4.458;2022-07-05T06:49:31;19.70;99.90
25112;DHT22;13092;51.996;4.458;2022-07-05T06:51:59;19.60;99.90
25112;DHT22;13092;51.996;4.458;2022-07-05T06:54:27;19.70;99.90
25112;DHT22;13092;51.996;4.458;2022-07-05T06:57:19;19.70;99.90
25112;DHT22;13092;51.996;4.458;2022-07-05T07:00:04;19.70;99.90
25112;DHT22;13092;51.996;4.458;2022-07-05T07:02:54;19.90;99.90
25112;DHT22;13092;51.996;4.458;2022-07-05T07:05:22;19.90;99.90
25112;DHT22;13092;51.996;4.458;2022-07-05T07:07:56;19.90;99.90
25112;DHT22;13092;51.996;4.458;2022-07-05T07:10:41;19.90;99.90
25112;DHT22;13092;51.996;4.458;2022-07-05T07:13:13;19.90;99.90
25112;DHT22;13092;51.996;4.458;2022-07-05T07:15:41;19.90;99.90
25112;DHT22;13092;51.996;4.458;2022-07-05T07:18:13;20.10;99.90
25112;DHT22;13092;51.996;4.458;2022-07-05T07:20:42;20.00;99.90
25112;DHT22;13092;51.996;4.458;2022-07-05T07:23:10;20.00;99.90
25112;DHT22;13092;51.996;4.458;2022-07-05T07:25:38;20.00;99.90
25112;DHT22;13092;51.996;4.458;2022-07-05T07:28:06;20.00;99.90
25112;DHT22;13092;51.996;4.458;2022-07-05T07:30:34;20.00;99.90
25112;DHT22;13092;51.996;4.458;2022-07-05T07:33:02;20.00;99.90
25112;DHT22;13092;51.996;4.458;2022-07-05T07:35:40;20.00;99.90
25112;DHT22;13092;51.996;4.458;2022-07-05T07:38:07;20.00;99.90
25112;DHT22;13092;51.996;4.458;2022-07-05T07:40:36;19.90;99.90
25112;DHT22;13092;51.996;4.458;2022-07-05T07:43:04;20.00;99.90
25112;DHT22;13092;51.996;4.458;2022-07-05T07:45:36;20.00;99.90
25112;DHT22;13092;51.996;4.458;2022-07-05T07:48:04;20.10;99.90
25112;DHT22;13092;51.996;4.458;2022-07-05T07:50:32;20.20;99.90
25112;DHT22;13092;51.996;4.458;2022-07-05T07:53:02;20.20;99.90
25112;DHT22;13092;51.996;4.458;2022-07-05T07:55:30;20.30;99.90
25112;DHT22;13092;51.996;4.458;2022-07-05T07:57:58;20.40;99.90
25112;DHT22;13092;51.996;4.458;2022-07-05T08:00:26;20.50;99.90
25112;DHT22;13092;51.996;4.458;2022-07-05T08:02:55;20.50;99.90
25112;DHT22;13092;51.996;4.458;2022-07-05T08:05:23;20.50;99.90
25112;DHT22;13092;51.996;4.458;2022-07-05T08:07:51;20.60;99.90
25112;DHT22;13092;51.996;4.458;2022-07-05T08:10:20;20.60;99.90
25112;DHT22;13092;51.996;4.458;2022-07-05T08:12:48;20.70;99.90
25112;DHT22;13092;51.996;4.458;2022-07-05T08:15:17;20.80;99.90
25112;DHT22;13092;51.996;4.458;2022-07-05T08:17:52;20.70;99.90
25112;DHT22;13092;51.996;4.458;2022-07-05T08:20:37;20.80;99.90
25112;DHT22;13092;51.996;4.458;2022-07-05T08:23:23;20.80;99.90
25112;DHT22;13092;51.996;4.458;2022-07-05T08:25:59;20.80;99.90
25112;DHT22;13092;51.996;4.458;2022-07-05T08:28:28;20.80;99.90
25112;DHT22;13092;51.996;4.458;2022-07-05T08:30:56;21.00;99.90
25112;DHT22;13092;51.996;4.458;2022-07-05T08:33:24;21.00;99.90
25112;DHT22;13092;51.996;4.458;2022-07-05T08:35:52;21.00;99.90
25112;DHT22;13092;51.996;4.458;2022-07-05T08:38:21;21.00;99.90
25112;DHT22;13092;51.996;4.458;2022-07-05T08:40:50;21.10;99.90
25112;DHT22;13092;51.996;4.458;2022-07-05T08:43:22;21.10;99.90
25112;DHT22;13092;51.996;4.458;2022-07-05T08:45:53;21.10;99.90
25112;DHT22;13092;51.996;4.458;2022-07-05T08:48:21;21.20;99.90
25112;DHT22;13092;51.996;4.458;2022-07-05T08:50:52;21.20;99.90
25112;DHT22;13092;51.996;4.458;2022-07-05T08:53:24;21.20;99.90
25112;DHT22;13092;51.996;4.458;2022-07-05T08:55:52;21.00;99.90
25112;DHT22;13092;51.996;4.458;2022-07-05T08:58:22;21.00;99.90
25112;DHT22;13092;51.996;4.458;2022-07-05T09:00:50;21.00;99.90
25112;DHT22;13092;51.996;4.458;2022-07-05T09:03:22;21.20;99.90
25112;DHT22;13092;51.996;4.458;2022-07-05T09:05:53;21.30;99.90
25112;DHT22;13092;51.996;4.458;2022-07-05T09:08:22;21.30;99.90
25112;DHT22;13092;51.996;4.458;2022-07-05T09:10:51;21.50;99.90
25112;DHT22;13092;51.996;4.458;2022-07-05T09:13:21;21.40;99.90
25112;DHT22;13092;51.996;4.458;2022-07-05T09:15:49;21.30;99.90
25112;DHT22;13092;51.996;4.458;2022-07-05T09:18:39;21.30;99.90
25112;DHT22;13092;51.996;4.458;2022-07-05T09:21:15;21.20;99.90
25112;DHT22;13092;51.996;4.458;2022-07-05T09:23:44;21.30;99.90
25112;DHT22;13092;51.996;4.458;2022-07-05T09:26:13;21.40;99.90
25112;DHT22;13092;51.996;4.458;2022-07-05T09:28:55;21.50;99.90
25112;DHT22;13092;51.996;4.458;2022-07-05T09:31:46;21.40;99.90
25112;DHT22;13092;51.996;4.458;2022-07-05T09:34:17;21.60;99.90
25112;DHT22;13092;51.996;4.458;2022-07-05T09:36:49;21.50;99.90
25112;DHT22;13092;51.996;4.458;2022-07-05T09:39:18;21.40;99.90
25112;DHT22;13092;51.996;4.458;2022-07-05T09:42:16;21.30;99.90
25112;DHT22;13092;51.996;4.458;2022-07-05T09:44:49;21.60;99.90
25112;DHT22;13092;51.996;4.458;2022-07-05T09:47:19;21.60;99.90
25112;DHT22;13092;51.996;4.458;2022-07-05T09:49:49;21.40;99.90
25112;DHT22;13092;51.996;4.458;2022-07-05T09:52:38;21.60;99.90
25112;DHT22;13092;51.996;4.458;2022-07-05T09:55:08;21.70;99.90
25112;DHT22;13092;51.996;4.458;2022-07-05T09:57:37;21.90;99.90
25112;DHT22;13092;51.996;4.458;2022-07-05T10:00:10;21.80;99.90
25112;DHT22;13092;51.996;4.458;2022-07-05T10:02:39;21.70;99.90
25112;DHT22;13092;51.996;4.458;2022-07-05T10:05:09;21.70;99.90
25112;DHT22;13092;51.996;4.458;2022-07-05T10:07:40;21.70;99.90
25112;DHT22;13092;51.996;4.458;2022-07-05T10:10:09;21.80;99.90
25112;DHT22;13092;51.996;4.458;2022-07-05T10:12:39;21.90;99.90
25112;DHT22;13092;51.996;4.458;2022-07-05T10:15:11;22.10;99.90
25112;DHT22;13092;51.996;4.458;2022-07-05T10:17:41;21.80;99.90
25112;DHT22;13092;51.996;4.458;2022-07-05T10:20:14;21.70;99.90
25112;DHT22;13092;51.996;4.458;2022-07-05T10:22:43;22.00;99.90
25112;DHT22;13092;51.996;4.458;2022-07-05T10:25:11;22.10;99.90
25112;DHT22;13092;51.996;4.458;2022-07-05T10:27:42;22.00;99.90
25112;DHT22;13092;51.996;4.458;2022-07-05T10:30:12;21.90;99.90
25112;DHT22;13092;51.996;4.458;2022-07-05T10:32:44;21.80;99.90
25112;DHT22;13092;51.996;4.458;2022-07-05T10:35:12;21.70;99.90
25112;DHT22;13092;51.996;4.458;2022-07-05T10:37:49;21.80;99.90
25112;DHT22;13092;51.996;4.458;2022-07-05T10:40:17;21.70;99.90
25112;DHT22;13092;51.996;4.458;2022-07-05T10:42:48;21.70;99.90
25112;DHT22;13092;51.996;4.458;2022-07-05T10:45:29;21.90;99.90
25112;DHT22;13092;51.996;4.458;2022-07-05T10:48:17;21.90;99.90
25112;DHT22;13092;51.996;4.458;2022-07-05T10:50:48;21.80;99.90
25112;DHT22;13092;51.996;4.458;2022-07-05T10:53:17;21.90;99.90
25112;DHT22;13092;51.996;4.458;2022-07-05T10:55:51;21.90;99.90
25112;DHT22;13092;51.996;4.458;2022-07-05T10:58:30;21.90;99.90
25112;DHT22;13092;51.996;4.458;2022-07-05T11:01:35;21.90;99.90
25112;DHT22;13092;51.996;4.458;2022-07-05T11:04:25;22.10;99.90
25112;DHT22;13092;51.996;4.458;2022-07-05T11:06:56;22.20;99.90
25112;DHT22;13092;51.996;4.458;2022-07-05T11:09:25;22.20;99.90
25112;DHT22;13092;51.996;4.458;2022-07-05T11:12:17;22.10;99.90
25112;DHT22;13092;51.996;4.458;2022-07-05T11:15:04;22.10;99.90
25112;DHT22;13092;51.996;4.458;2022-07-05T11:17:34;22.30;99.90
25112;DHT22;13092;51.996;4.458;2022-07-05T11:20:29;22.40;99.90
25112;DHT22;13092;51.996;4.458;2022-07-05T11:23:03;22.40;99.90
25112;DHT22;13092;51.996;4.458;2022-07-05T11:25:33;22.50;99.90
25112;DHT22;13092;51.996;4.458;2022-07-05T11:28:13;22.40;99.90
25112;DHT22;13092;51.996;4.458;2022-07-05T11:30:51;22.70;99.90
25112;DHT22;13092;51.996;4.458;2022-07-05T11:33:36;22.30;99.90
25112;DHT22;13092;51.996;4.458;2022-07-05T11:36:07;22.30;99.90
25112;DHT22;13092;51.996;4.458;2022-07-05T11:39:14;22.30;99.90
25112;DHT22;13092;51.996;4.458;2022-07-05T11:41:45;22.20;99.90
25112;DHT22;13092;51.996;4.458;2022-07-05T11:44:14;22.40;99.90
25112;DHT22;13092;51.996;4.458;2022-07-05T11:46:44;22.50;99.90
25112;DHT22;13092;51.996;4.458;2022-07-05T11:49:23;22.30;99.90
25112;DHT22;13092;51.996;4.458;2022-07-05T11:51:54;22.10;99.90
25112;DHT22;13092;51.996;4.458;2022-07-05T11:54:23;22.00;99.90
25112;DHT22;13092;51.996;4.458;2022-07-05T11:56:51;21.90;99.90
25112;DHT22;13092;51.996;4.458;2022-07-05T11:59:21;22.30;99.90
25112;DHT22;13092;51.996;4.458;2022-07-05T12:01:49;22.00;99.90
25112;DHT22;13092;51.996;4.458;2022-07-05T12:04:23;22.10;99.90
25112;DHT22;13092;51.996;4.458;2022-07-05T12:06:51;22.10;99.90
25112;DHT22;13092;51.996;4.458;2022-07-05T12:09:23;22.10;99.90
25112;DHT22;13092;51.996;4.458;2022-07-05T12:11:52;21.90;99.90
25112;DHT22;13092;51.996;4.458;2022-07-05T12:14:46;21.90;99.90
25112;DHT22;13092;51.996;4.458;2022-07-05T12:17:16;22.00;99.90
25112;DHT22;13092;51.996;4.458;2022-07-05T12:19:53;21.90;99.90
25112;DHT22;13092;51.996;4.458;2022-07-05T12:22:32;21.80;99.90
25112;DHT22;13092;51.996;4.458;2022-07-05T12:25:02;21.80;99.90
25112;DHT22;13092;51.996;4.458;2022-07-05T12:27:32;21.80;99.90
25112;DHT22;13092;51.996;4.458;2022-07-05T12:30:02;21.70;99.90
25112;DHT22;13092;51.996;4.458;2022-07-05T12:32:31;21.50;99.90
25112;DHT22;13092;51.996;4.458;2022-07-05T12:35:02;21.40;99.90
25112;DHT22;13092;51.996;4.458;2022-07-05T12:37:33;21.50;99.90
25112;DHT22;13092;51.996;4.458;2022-07-05T12:40:04;21.60;99.90
25112;DHT22;13092;51.996;4.458;2022-07-05T12:42:34;21.60;99.90
25112;DHT22;13092;51.996;4.458;2022-07-05T12:45:13;21.40;99.90
25112;DHT22;13092;51.996;4.458;2022-07-05T12:47:49;21.50;99.90
25112;DHT22;13092;51.996;4.458;2022-07-05T12:50:22;21.60;99.90
25112;DHT22;13092;51.996;4.458;2022-07-05T12:53:03;21.60;99.90
25112;DHT22;13092;51.996;4.458;2022-07-05T12:55:49;21.50;99.90
25112;DHT22;13092;51.996;4.458;2022-07-05T12:58:45;21.50;99.90
25112;DHT22;13092;51.996;4.458;2022-07-05T13:01:22;21.60;99.90
25112;DHT22;13092;51.996;4.458;2022-07-05T13:04:02;21.50;99.90
25112;DHT22;13092;51.996;4.458;2022-07-05T13:06:47;21.30;99.90
25112;DHT22;13092;51.996;4.458;2022-07-05T13:09:30;21.40;99.90
25112;DHT22;13092;51.996;4.458;2022-07-05T13:12:09;21.20;99.90
25112;DHT22;13092;51.996;4.458;2022-07-05T13:14:39;21.10;99.90
25112;DHT22;13092;51.996;4.458;2022-07-05T13:17:08;21.20;99.90
25112;DHT22;13092;51.996;4.458;2022-07-05T13:19:39;21.20;99.90
25112;DHT22;13092;51.996;4.458;2022-07-05T13:22:08;20.90;99.90
25112;DHT22;13092;51.996;4.458;2022-07-05T13:24:37;20.90;99.90
25112;DHT22;13092;51.996;4.458;2022-07-05T13:27:08;20.70;99.90
25112;DHT22;13092;51.996;4.458;2022-07-05T13:29:36;20.60;99.90
25112;DHT22;13092;51.996;4.458;2022-07-05T13:32:05;20.50;99.90
25112;DHT22;13092;51.996;4.458;2022-07-05T13:34:33;20.40;99.90
25112;DHT22;13092;51.996;4.458;2022-07-05T13:37:02;20.10;99.90
25112;DHT22;13092;51.996;4.458;2022-07-05T13:39:31;20.10;99.90
25112;DHT22;13092;51.996;4.458;2022-07-05T13:41:59;20.20;99.90
25112;DHT22;13092;51.996;4.458;2022-07-05T13:44:27;20.60;99.90
25112;DHT22;13092;51.996;4.458;2022-07-05T13:46:55;20.60;99.90
25112;DHT22;13092;51.996;4.458;2022-07-05T13:49:23;20.50;99.90
25112;DHT22;13092;51.996;4.458;2022-07-05T13:51:51;20.30;99.90
25112;DHT22;13092;51.996;4.458;2022-07-05T13:54:19;20.40;99.90
25112;DHT22;13092;51.996;4.458;2022-07-05T13:56:48;20.40;99.90
25112;DHT22;13092;51.996;4.458;2022-07-05T13:59:19;20.40;99.90
25112;DHT22;13092;51.996;4.458;2022-07-05T14:01:47;20.50;99.90
25112;DHT22;13092;51.996;4.458;2022-07-05T14:04:15;20.50;99.90
25112;DHT22;13092;51.996;4.458;2022-07-05T14:06:43;20.50;99.90
25112;DHT22;13092;51.996;4.458;2022-07-05T14:09:13;20.40;99.90
25112;DHT22;13092;51.996;4.458;2022-07-05T14:11:41;20.30;99.90
25112;DHT22;13092;51.996;4.458;2022-07-05T14:14:10;20.20;99.90
25112;DHT22;13092;51.996;4.458;2022-07-05T14:16:39;20.50;99.90
25112;DHT22;13092;51.996;4.458;2022-07-05T14:19:08;20.50;99.90
25112;DHT22;13092;51.996;4.458;2022-07-05T14:21:36;20.60;99.90
25112;DHT22;13092;51.996;4.458;2022-07-05T14:24:06;20.60;99.90
25112;DHT22;13092;51.996;4.458;2022-07-05T14:26:34;20.40;99.90
25112;DHT22;13092;51.996;4.458;2022-07-05T14:29:02;20.50;99.90
25112;DHT22;13092;51.996;4.458;2022-07-05T14:31:31;20.60;99.90
25112;DHT22;13092;51.996;4.458;2022-07-05T14:34:00;20.90;99.90
25112;DHT22;13092;51.996;4.458;2022-07-05T14:36:28;20.70;99.90
25112;DHT22;13092;51.996;4.458;2022-07-05T14:38:56;20.80;99.90
25112;DHT22;13092;51.996;4.458;2022-07-05T14:41:26;20.80;99.90
25112;DHT22;13092;51.996;4.458;2022-07-05T14:43:54;20.70;99.90
25112;DHT22;13092;51.996;4.458;2022-07-05T14:46:23;20.60;99.90
25112;DHT22;13092;51.996;4.458;2022-07-05T14:48:52;20.70;99.90
25112;DHT22;13092;51.996;4.458;2022-07-05T14:51:20;20.90;99.90
25112;DHT22;13092;51.996;4.458;2022-07-05T14:53:48;21.10;99.90
25112;DHT22;13092;51.996;4.458;2022-07-05T14:56:16;21.30;99.90
25112;DHT22;13092;51.996;4.458;2022-07-05T14:58:45;21.00;99.90
25112;DHT22;13092;51.996;4.458;2022-07-05T15:01:15;20.70;99.90
25112;DHT22;13092;51.996;4.458;2022-07-05T15:03:44;20.60;99.90
25112;DHT22;13092;51.996;4.458;2022-07-05T15:06:13;20.50;99.90
25112;DHT22;13092;51.996;4.458;2022-07-05T15:08:42;20.30;99.90
25112;DHT22;13092;51.996;4.458;2022-07-05T15:11:10;20.30;99.90
25112;DHT22;13092;51.996;4.458;2022-07-05T15:13:38;20.30;99.90
25112;DHT22;13092;51.996;4.458;2022-07-05T15:16:07;20.20;99.90
25112;DHT22;13092;51.996;4.458;2022-07-05T15:18:35;19.90;99.90
25112;DHT22;13092;51.996;4.458;2022-07-05T15:21:03;20.00;99.90
25112;DHT22;13092;51.996;4.458;2022-07-05T15:23:33;19.90;99.90
25112;DHT22;13092;51.996;4.458;2022-07-05T15:26:01;19.90;99.90
25112;DHT22;13092;51.996;4.458;2022-07-05T15:28:29;20.10;99.90
25112;DHT22;13092;51.996;4.458;2022-07-05T15:30:57;20.20;99.90
25112;DHT22;13092;51.996;4.458;2022-07-05T15:33:25;20.10;99.90
25112;DHT22;13092;51.996;4.458;2022-07-05T15:35:56;20.00;99.90
25112;DHT22;13092;51.996;4.458;2022-07-05T15:38:25;20.10;99.90
25112;DHT22;13092;51.996;4.458;2022-07-05T15:40:56;20.20;99.90
25112;DHT22;13092;51.996;4.458;2022-07-05T15:43:24;20.50;99.90
25112;DHT22;13092;51.996;4.458;2022-07-05T15:45:55;20.50;99.90
25112;DHT22;13092;51.996;4.458;2022-07-05T15:48:23;20.70;99.90
25112;DHT22;13092;51.996;4.458;2022-07-05T15:50:51;20.60;99.90
25112;DHT22;13092;51.996;4.458;2022-07-05T15:53:26;20.30;99.90